createdAt,value
2022-08-26T00:07:11.865Z,100182.09
2022-08-26T00:17:15.267Z,100176.75
2022-08-26T00:27:19.974Z,100170.38
2022-08-26T00:37:24.185Z,100172.84
2022-08-26T00:47:35.316Z,100176.81
2022-08-26T00:57:41.126Z,100166.28
2022-08-26T01:07:45.844Z,100157.53
2022-08-26T01:17:49.873Z,100158.66
2022-08-26T01:27:57.824Z,100162.44
2022-08-26T01:38:02.295Z,100158.72
2022-08-26T01:48:11.634Z,100158.38
2022-08-26T01:58:18.513Z,100158.38
2022-08-26T02:08:26.108Z,100157.72
2022-08-26T02:18:30.112Z,100146.34
2022-08-26T02:28:40.490Z,100156.03
2022-08-26T02:38:43.633Z,100154.31
2022-08-26T02:48:51.104Z,100149.53
2022-08-26T02:58:54.409Z,100146.38
2022-08-26T03:08:59.193Z,100148.06
2022-08-26T03:19:03.521Z,100150.75
2022-08-26T03:29:25.651Z,100143.47
2022-08-26T03:39:31.562Z,100146.78
2022-08-26T03:49:37.168Z,100132.25
2022-08-26T03:59:41.317Z,100127.50
2022-08-26T04:09:46.179Z,100140.09
2022-08-26T04:19:49.776Z,100129.47
2022-08-26T04:29:55.265Z,100140.78
2022-08-26T04:39:58.746Z,100132.63
2022-08-26T04:50:03.339Z,100138.56
2022-08-26T05:00:07.753Z,100131.28
2022-08-26T05:10:12.487Z,100132.69
2022-08-26T05:20:19.227Z,100139.78
2022-08-26T05:30:31.451Z,100139.41
2022-08-26T05:40:35.475Z,100141.44
2022-08-26T05:50:40.959Z,100143.41
2022-08-26T06:00:46.303Z,100143.22
2022-08-26T06:10:52.623Z,100142.28
2022-08-26T06:20:57.874Z,100137.81
2022-08-26T06:31:03.917Z,100155.37
2022-08-26T06:41:10.705Z,100153.50
2022-08-26T06:51:17.970Z,100162.91
2022-08-26T07:01:24.455Z,100157.75
2022-08-26T07:11:29.210Z,100164.53
2022-08-26T07:21:34.059Z,100145.56
2022-08-26T07:31:39.418Z,100149.19
2022-08-26T07:41:47.327Z,100138.81
2022-08-26T07:51:52.229Z,100139.38
2022-08-26T08:01:59.130Z,100142.19
2022-08-26T08:12:04.446Z,100137.56
2022-08-26T08:22:11.356Z,100132.16
2022-08-26T08:32:22.513Z,100125.66
2022-08-26T08:42:38.618Z,100122.53
2022-08-26T08:52:45.638Z,100110.25
2022-08-26T09:02:53.824Z,100107.88
2022-08-26T09:13:06.130Z,100100.97
2022-08-26T09:23:11.116Z,100098.19
2022-08-26T09:33:18.573Z,100093.31
2022-08-26T09:43:22.070Z,100080.53
2022-08-26T09:53:30.405Z,100065.38
2022-08-26T10:03:36.259Z,100061.88
2022-08-26T10:13:43.955Z,100069.25
2022-08-26T10:23:49.490Z,100050.94
2022-08-26T10:33:58.683Z,100044.50
2022-08-26T10:44:05.094Z,100039.34
2022-08-26T10:54:12.360Z,100028.53
2022-08-26T11:04:25.015Z,100011.44
2022-08-26T11:14:53.087Z,100006.56
2022-08-26T11:25:13.414Z,99997.41
2022-08-26T11:35:46.527Z,99993.00
2022-08-26T11:46:00.615Z,99981.00
2022-08-26T11:56:09.631Z,99973.16
2022-08-26T12:06:16.784Z,99961.91
2022-08-26T12:16:25.539Z,99947.16
2022-08-26T12:26:32.869Z,99947.47
2022-08-26T12:36:37.874Z,99939.16
2022-08-26T12:46:44.716Z,99919.31
2022-08-26T12:56:49.878Z,99906.06
2022-08-26T13:07:30.763Z,99901.09
2022-08-26T13:17:36.066Z,99889.38
2022-08-26T13:27:39.299Z,99886.53
2022-08-26T13:37:43.881Z,99877.78
2022-08-26T13:47:49.506Z,99861.38
2022-08-26T13:57:54.285Z,99848.44
2022-08-26T14:07:58.359Z,99845.09
2022-08-26T14:18:05.837Z,99854.09
2022-08-26T14:28:12.054Z,99865.16
2022-08-26T14:38:17.576Z,99855.63
2022-08-26T14:48:20.811Z,99859.56
2022-08-26T14:58:25.387Z,99857.75
2022-08-26T15:08:36.609Z,99845.16
2022-08-26T15:18:41.584Z,99842.22
2022-08-26T15:28:45.167Z,99835.72
2022-08-26T15:38:49.783Z,99839.22
2022-08-26T15:48:53.546Z,99826.03
2022-08-26T15:58:59.487Z,99822.25
2022-08-26T16:09:03.201Z,99813.78
2022-08-26T16:19:08.262Z,99808.72
2022-08-26T16:29:14.097Z,99807.62
2022-08-26T16:39:18.670Z,99809.28
2022-08-26T16:49:22.406Z,99808.19
2022-08-26T16:59:27.430Z,99814.44
2022-08-26T17:09:31.463Z,99823.72
2022-08-26T17:19:40.847Z,99820.47
2022-08-26T17:29:44.974Z,99811.00
2022-08-26T17:39:49.541Z,99823.25
2022-08-26T17:49:52.862Z,99818.41
2022-08-26T17:59:57.438Z,99819.34
2022-08-26T18:10:01.591Z,99826.97
2022-08-26T18:20:07.239Z,99822.62
2022-08-26T18:30:16.667Z,99826.81
2022-08-26T18:40:22.046Z,99823.03
2022-08-26T18:50:25.370Z,99830.81
2022-08-26T19:00:31.579Z,99845.91
2022-08-26T19:10:35.849Z,99843.44
2022-08-26T19:20:44.723Z,99852.78
2022-08-26T19:30:53.183Z,99857.16
2022-08-26T19:40:58.882Z,99863.34
2022-08-26T19:51:02.018Z,99864.37
2022-08-26T20:01:11.670Z,99872.81
2022-08-26T20:11:42.731Z,99880.88
2022-08-26T20:21:47.274Z,99885.25
2022-08-26T20:31:50.539Z,99894.09
2022-08-26T20:41:55.160Z,99908.94
2022-08-26T20:51:58.410Z,99910.34
2022-08-26T21:02:03.020Z,99921.97
2022-08-26T21:12:06.438Z,99926.38
2022-08-26T21:22:12.353Z,99939.00
2022-08-26T21:32:15.837Z,99936.69
2022-08-26T21:42:20.512Z,99939.31
2022-08-26T21:52:23.877Z,99939.97
2022-08-26T22:02:28.666Z,99946.25
2022-08-26T22:12:31.840Z,99936.22
2022-08-26T22:22:36.486Z,99929.97
2022-08-26T22:32:40.423Z,99935.13
2022-08-26T22:42:45.066Z,99923.06
2022-08-26T22:53:01.378Z,99921.94
2022-08-26T23:03:06.259Z,99910.66
2022-08-26T23:13:09.480Z,99909.25
2022-08-26T23:23:14.086Z,99908.28
2022-08-26T23:33:17.536Z,99911.03
2022-08-26T23:43:22.229Z,99907.91
2022-08-26T23:53:25.382Z,99895.06
